sensor_id;sensor_type;location;lat;lon;timestamp;temperature;humidity
19050;DHT22;9657;45.940;12.840;2023-04-03T00:01:51;16.70;67.90
19050;DHT22;9657;45.940;12.840;2023-04-03T00:04:18;16.70;67.90
19050;DHT22;9657;45.940;12.840;2023-04-03T00:06:45;16.60;67.80
19050;DHT22;9657;45.940;12.840;2023-04-03T00:09:14;16.60;67.80
19050;DHT22;9657;45.940;12.840;2023-04-03T00:11:41;16.70;67.90
19050;DHT22;9657;45.940;12.840;2023-04-03T00:14:08;16.70;67.90
19050;DHT22;9657;45.940;12.840;2023-04-03T00:16:35;16.70;67.80
19050;DHT22;9657;45.940;12.840;2023-04-03T00:19:02;16.60;67.80
19050;DHT22;9657;45.940;12.840;2023-04-03T00:21:29;16.60;67.80
19050;DHT22;9657;45.940;12.840;2023-04-03T00:23:57;16.60;67.80
19050;DHT22;9657;45.940;12.840;2023-04-03T00:26:25;16.70;67.90
19050;DHT22;9657;45.940;12.840;2023-04-03T00:28:52;16.60;67.80
19050;DHT22;9657;45.940;12.840;2023-04-03T00:31:19;16.60;67.80
19050;DHT22;9657;45.940;12.840;2023-04-03T00:33:46;16.60;67.80
19050;DHT22;9657;45.940;12.840;2023-04-03T00:36:13;16.60;67.80
19050;DHT22;9657;45.940;12.840;2023-04-03T00:38:40;16.60;67.80
19050;DHT22;9657;45.940;12.840;2023-04-03T00:41:07;16.60;67.80
19050;DHT22;9657;45.940;12.840;2023-04-03T00:43:36;16.60;67.80
19050;DHT22;9657;45.940;12.840;2023-04-03T00:46:03;16.60;67.80
19050;DHT22;9657;45.940;12.840;2023-04-03T00:48:33;16.60;67.80
19050;DHT22;9657;45.940;12.840;2023-04-03T00:51:01;16.60;67.80
19050;DHT22;9657;45.940;12.840;2023-04-03T00:53:31;16.60;67.80
19050;DHT22;9657;45.940;12.840;2023-04-03T00:56:00;16.60;67.80
19050;DHT22;9657;45.940;12.840;2023-04-03T00:58:31;16.60;67.80
19050;DHT22;9657;45.940;12.840;2023-04-03T01:03:37;16.60;67.80
19050;DHT22;9657;45.940;12.840;2023-04-03T01:06:04;16.60;67.80
19050;DHT22;9657;45.940;12.840;2023-04-03T01:08:31;16.60;67.80
19050;DHT22;9657;45.940;12.840;2023-04-03T01:10:58;16.60;67.80
19050;DHT22;9657;45.940;12.840;2023-04-03T01:13:28;16.60;67.80
19050;DHT22;9657;45.940;12.840;2023-04-03T01:15:55;16.60;67.80
19050;DHT22;9657;45.940;12.840;2023-04-03T01:18:23;16.60;67.80
19050;DHT22;9657;45.940;12.840;2023-04-03T01:26:52;16.60;67.80
19050;DHT22;9657;45.940;12.840;2023-04-03T01:29:19;16.60;67.80
19050;DHT22;9657;45.940;12.840;2023-04-03T01:31:53;16.60;67.80
19050;DHT22;9657;45.940;12.840;2023-04-03T01:34:20;16.60;67.80
19050;DHT22;9657;45.940;12.840;2023-04-03T01:36:48;16.60;67.80
19050;DHT22;9657;45.940;12.840;2023-04-03T01:39:16;16.60;67.80
19050;DHT22;9657;45.940;12.840;2023-04-03T01:41:43;16.60;67.80
19050;DHT22;9657;45.940;12.840;2023-04-03T01:44:10;16.60;67.80
19050;DHT22;9657;45.940;12.840;2023-04-03T01:46:37;16.60;67.80
19050;DHT22;9657;45.940;12.840;2023-04-03T01:49:05;16.60;67.80
19050;DHT22;9657;45.940;12.840;2023-04-03T01:51:32;16.60;67.80
19050;DHT22;9657;45.940;12.840;2023-04-03T01:54:00;16.60;67.80
19050;DHT22;9657;45.940;12.840;2023-04-03T01:56:27;16.60;68.60
19050;DHT22;9657;45.940;12.840;2023-04-03T01:58:54;16.60;67.80
19050;DHT22;9657;45.940;12.840;2023-04-03T02:01:21;16.60;67.80
19050;DHT22;9657;45.940;12.840;2023-04-03T02:03:48;16.50;67.80
19050;DHT22;9657;45.940;12.840;2023-04-03T02:06:17;16.50;67.80
19050;DHT22;9657;45.940;12.840;2023-04-03T02:08:44;16.50;67.80
19050;DHT22;9657;45.940;12.840;2023-04-03T02:11:11;16.50;67.80
19050;DHT22;9657;45.940;12.840;2023-04-03T02:13:38;16.50;67.80
19050;DHT22;9657;45.940;12.840;2023-04-03T02:16:09;16.50;67.80
19050;DHT22;9657;45.940;12.840;2023-04-03T02:18:37;16.50;67.80
19050;DHT22;9657;45.940;12.840;2023-04-03T02:21:04;16.60;68.30
19050;DHT22;9657;45.940;12.840;2023-04-03T02:23:32;16.50;67.80
19050;DHT22;9657;45.940;12.840;2023-04-03T02:26:06;16.50;67.80
19050;DHT22;9657;45.940;12.840;2023-04-03T02:28:33;16.50;67.70
19050;DHT22;9657;45.940;12.840;2023-04-03T02:31:00;16.60;67.80
19050;DHT22;9657;45.940;12.840;2023-04-03T02:33:28;16.50;67.80
19050;DHT22;9657;45.940;12.840;2023-04-03T02:35:55;16.60;67.80
19050;DHT22;9657;45.940;12.840;2023-04-03T02:38:22;16.50;67.70
19050;DHT22;9657;45.940;12.840;2023-04-03T02:40:51;16.50;67.70
19050;DHT22;9657;45.940;12.840;2023-04-03T02:43:18;16.50;67.70
19050;DHT22;9657;45.940;12.840;2023-04-03T02:45:45;16.50;67.80
19050;DHT22;9657;45.940;12.840;2023-04-03T02:48:12;16.50;67.80
19050;DHT22;9657;45.940;12.840;2023-04-03T02:50:40;16.50;67.70
19050;DHT22;9657;45.940;12.840;2023-04-03T02:53:08;16.50;67.80
19050;DHT22;9657;45.940;12.840;2023-04-03T02:55:35;16.50;67.80
19050;DHT22;9657;45.940;12.840;2023-04-03T02:58:03;16.50;67.70
19050;DHT22;9657;45.940;12.840;2023-04-03T03:00:30;16.50;67.80
19050;DHT22;9657;45.940;12.840;2023-04-03T03:02:57;16.50;67.80
19050;DHT22;9657;45.940;12.840;2023-04-03T03:05:24;16.50;67.70
19050;DHT22;9657;45.940;12.840;2023-04-03T03:07:52;16.50;68.60
19050;DHT22;9657;45.940;12.840;2023-04-03T03:10:19;16.50;67.70
19050;DHT22;9657;45.940;12.840;2023-04-03T03:12:46;16.50;67.70
19050;DHT22;9657;45.940;12.840;2023-04-03T03:15:15;16.50;67.70
19050;DHT22;9657;45.940;12.840;2023-04-03T03:17:43;16.50;67.70
19050;DHT22;9657;45.940;12.840;2023-04-03T03:20:11;16.50;67.70
19050;DHT22;9657;45.940;12.840;2023-04-03T03:22:39;16.50;67.80
19050;DHT22;9657;45.940;12.840;2023-04-03T03:25:07;16.50;67.70
19050;DHT22;9657;45.940;12.840;2023-04-03T03:27:34;16.50;67.70
19050;DHT22;9657;45.940;12.840;2023-04-03T03:30:01;16.50;67.70
19050;DHT22;9657;45.940;12.840;2023-04-03T03:32:30;16.50;67.70
19050;DHT22;9657;45.940;12.840;2023-04-03T03:34:57;16.50;67.70
19050;DHT22;9657;45.940;12.840;2023-04-03T03:37:24;16.50;67.80
19050;DHT22;9657;45.940;12.840;2023-04-03T03:39:51;16.50;67.80
19050;DHT22;9657;45.940;12.840;2023-04-03T03:42:18;16.50;67.80
19050;DHT22;9657;45.940;12.840;2023-04-03T03:44:45;16.50;67.80
19050;DHT22;9657;45.940;12.840;2023-04-03T03:47:12;16.50;68.70
19050;DHT22;9657;45.940;12.840;2023-04-03T03:49:40;16.50;67.80
19050;DHT22;9657;45.940;12.840;2023-04-03T03:52:07;16.50;67.80
19050;DHT22;9657;45.940;12.840;2023-04-03T03:54:36;16.50;67.80
19050;DHT22;9657;45.940;12.840;2023-04-03T03:57:03;16.40;67.80
19050;DHT22;9657;45.940;12.840;2023-04-03T03:59:30;16.50;67.80
19050;DHT22;9657;45.940;12.840;2023-04-03T04:01:57;16.50;68.70
19050;DHT22;9657;45.940;12.840;2023-04-03T04:04:24;16.40;67.80
19050;DHT22;9657;45.940;12.840;2023-04-03T04:06:53;16.50;67.90
19050;DHT22;9657;45.940;12.840;2023-04-03T04:09:22;16.50;67.90
19050;DHT22;9657;45.940;12.840;2023-04-03T04:11:49;16.40;67.80
19050;DHT22;9657;45.940;12.840;2023-04-03T04:14:16;16.40;67.80
19050;DHT22;9657;45.940;12.840;2023-04-03T04:16:43;16.40;67.90
19050;DHT22;9657;45.940;12.840;2023-04-03T04:19:10;16.40;67.80
19050;DHT22;9657;45.940;12.840;2023-04-03T04:21:38;16.40;67.80
19050;DHT22;9657;45.940;12.840;2023-04-03T04:24:07;16.40;67.80
19050;DHT22;9657;45.940;12.840;2023-04-03T04:26:34;16.40;67.90
19050;DHT22;9657;45.940;12.840;2023-04-03T04:29:01;16.40;67.80
19050;DHT22;9657;45.940;12.840;2023-04-03T04:31:28;16.40;67.90
19050;DHT22;9657;45.940;12.840;2023-04-03T04:33:55;16.40;67.90
19050;DHT22;9657;45.940;12.840;2023-04-03T04:36:22;16.40;67.90
19050;DHT22;9657;45.940;12.840;2023-04-03T04:38:49;16.40;67.90
19050;DHT22;9657;45.940;12.840;2023-04-03T04:41:20;16.40;67.90
19050;DHT22;9657;45.940;12.840;2023-04-03T04:43:47;16.40;67.90
19050;DHT22;9657;45.940;12.840;2023-04-03T04:46:15;16.40;67.90
19050;DHT22;9657;45.940;12.840;2023-04-03T04:48:42;16.40;67.90
19050;DHT22;9657;45.940;12.840;2023-04-03T04:51:09;16.40;67.90
19050;DHT22;9657;45.940;12.840;2023-04-03T04:53:36;16.40;67.90
19050;DHT22;9657;45.940;12.840;2023-04-03T04:56:04;16.40;67.90
19050;DHT22;9657;45.940;12.840;2023-04-03T04:58:33;16.40;67.90
19050;DHT22;9657;45.940;12.840;2023-04-03T05:01:00;16.40;68.00
19050;DHT22;9657;45.940;12.840;2023-04-03T05:03:27;16.40;68.00
19050;DHT22;9657;45.940;12.840;2023-04-03T05:05:54;16.40;68.00
19050;DHT22;9657;45.940;12.840;2023-04-03T05:08:21;16.40;68.10
19050;DHT22;9657;45.940;12.840;2023-04-03T05:10:48;16.40;68.10
19050;DHT22;9657;45.940;12.840;2023-04-03T05:13:15;16.40;68.20
19050;DHT22;9657;45.940;12.840;2023-04-03T05:15:43;16.40;68.30
19050;DHT22;9657;45.940;12.840;2023-04-03T05:18:10;16.40;69.10
19050;DHT22;9657;45.940;12.840;2023-04-03T05:20:37;16.40;68.30
19050;DHT22;9657;45.940;12.840;2023-04-03T05:23:05;16.40;68.30
19050;DHT22;9657;45.940;12.840;2023-04-03T05:25:32;16.40;68.40
19050;DHT22;9657;45.940;12.840;2023-04-03T05:27:59;16.40;68.50
19050;DHT22;9657;45.940;12.840;2023-04-03T05:30:26;16.40;68.50
19050;DHT22;9657;45.940;12.840;2023-04-03T05:32:55;16.40;68.60
19050;DHT22;9657;45.940;12.840;2023-04-03T05:35:22;16.40;68.50
19050;DHT22;9657;45.940;12.840;2023-04-03T05:37:49;16.40;68.60
19050;DHT22;9657;45.940;12.840;2023-04-03T05:40:16;16.40;68.60
19050;DHT22;9657;45.940;12.840;2023-04-03T05:42:44;16.40;68.60
19050;DHT22;9657;45.940;12.840;2023-04-03T05:45:11;16.30;68.60
19050;DHT22;9657;45.940;12.840;2023-04-03T05:47:38;16.30;68.60
19050;DHT22;9657;45.940;12.840;2023-04-03T05:50:07;16.40;68.70
19050;DHT22;9657;45.940;12.840;2023-04-03T05:52:37;16.40;68.70
19050;DHT22;9657;45.940;12.840;2023-04-03T05:55:05;16.30;68.60
19050;DHT22;9657;45.940;12.840;2023-04-03T05:57:32;16.40;68.60
19050;DHT22;9657;45.940;12.840;2023-04-03T05:59:59;16.40;68.60
19050;DHT22;9657;45.940;12.840;2023-04-03T06:02:26;16.40;68.70
19050;DHT22;9657;45.940;12.840;2023-04-03T06:04:53;16.30;68.60
19050;DHT22;9657;45.940;12.840;2023-04-03T06:07:24;16.40;68.60
19050;DHT22;9657;45.940;12.840;2023-04-03T06:09:55;16.30;68.60
19050;DHT22;9657;45.940;12.840;2023-04-03T06:12:22;16.30;68.60
19050;DHT22;9657;45.940;12.840;2023-04-03T06:14:49;16.30;68.60
19050;DHT22;9657;45.940;12.840;2023-04-03T06:17:16;16.30;68.60
19050;DHT22;9657;45.940;12.840;2023-04-03T06:19:44;16.30;68.60
19050;DHT22;9657;45.940;12.840;2023-04-03T06:22:11;16.30;68.60
19050;DHT22;9657;45.940;12.840;2023-04-03T06:24:40;16.30;68.60
19050;DHT22;9657;45.940;12.840;2023-04-03T06:27:07;16.40;68.60
19050;DHT22;9657;45.940;12.840;2023-04-03T06:29:34;16.30;68.60
19050;DHT22;9657;45.940;12.840;2023-04-03T06:32:02;16.30;68.60
19050;DHT22;9657;45.940;12.840;2023-04-03T06:34:29;16.40;68.60
19050;DHT22;9657;45.940;12.840;2023-04-03T06:36:57;16.30;69.40
19050;DHT22;9657;45.940;12.840;2023-04-03T06:39:24;16.30;68.60
19050;DHT22;9657;45.940;12.840;2023-04-03T06:41:52;16.40;68.70
19050;DHT22;9657;45.940;12.840;2023-04-03T06:44:19;16.30;68.60
19050;DHT22;9657;45.940;12.840;2023-04-03T06:46:46;16.30;68.60
19050;DHT22;9657;45.940;12.840;2023-04-03T06:49:14;16.40;68.70
19050;DHT22;9657;45.940;12.840;2023-04-03T06:51:41;16.40;68.70
19050;DHT22;9657;45.940;12.840;2023-04-03T06:54:08;16.30;68.60
19050;DHT22;9657;45.940;12.840;2023-04-03T06:56:35;16.40;68.70
19050;DHT22;9657;45.940;12.840;2023-04-03T06:59:04;16.30;68.60
19050;DHT22;9657;45.940;12.840;2023-04-03T07:01:31;16.40;68.60
19050;DHT22;9657;45.940;12.840;2023-04-03T07:03:58;16.30;68.60
19050;DHT22;9657;45.940;12.840;2023-04-03T07:06:25;16.30;68.60
19050;DHT22;9657;45.940;12.840;2023-04-03T07:08:53;16.30;68.60
19050;DHT22;9657;45.940;12.840;2023-04-03T07:11:21;16.40;68.60
19050;DHT22;9657;45.940;12.840;2023-04-03T07:13:48;16.30;68.60
19050;DHT22;9657;45.940;12.840;2023-04-03T07:16:17;16.40;68.70
19050;DHT22;9657;45.940;12.840;2023-04-03T07:18:44;16.40;68.60
19050;DHT22;9657;45.940;12.840;2023-04-03T07:21:11;16.30;68.60
19050;DHT22;9657;45.940;12.840;2023-04-03T07:23:38;16.40;68.60
19050;DHT22;9657;45.940;12.840;2023-04-03T07:26:06;16.30;68.60
19050;DHT22;9657;45.940;12.840;2023-04-03T07:28:33;16.40;68.70
19050;DHT22;9657;45.940;12.840;2023-04-03T07:31:04;16.30;68.60
19050;DHT22;9657;45.940;12.840;2023-04-03T07:33:35;16.30;68.60
19050;DHT22;9657;45.940;12.840;2023-04-03T07:36:03;16.40;68.60
19050;DHT22;9657;45.940;12.840;2023-04-03T07:38:30;16.40;68.60
19050;DHT22;9657;45.940;12.840;2023-04-03T07:40:57;16.40;68.50
19050;DHT22;9657;45.940;12.840;2023-04-03T07:43:24;16.40;68.50
19050;DHT22;9657;45.940;12.840;2023-04-03T07:45:52;16.40;68.50
19050;DHT22;9657;45.940;12.840;2023-04-03T07:48:20;16.40;68.40
19050;DHT22;9657;45.940;12.840;2023-04-03T07:50:49;16.40;68.40
19050;DHT22;9657;45.940;12.840;2023-04-03T07:53:17;16.40;68.20
19050;DHT22;9657;45.940;12.840;2023-04-03T07:55:46;16.40;68.10
19050;DHT22;9657;45.940;12.840;2023-04-03T07:58:16;16.40;68.00
19050;DHT22;9657;45.940;12.840;2023-04-03T08:00:43;16.40;67.60
19050;DHT22;9657;45.940;12.840;2023-04-03T08:03:11;16.40;67.30
19050;DHT22;9657;45.940;12.840;2023-04-03T08:05:39;16.40;67.00
19050;DHT22;9657;45.940;12.840;2023-04-03T08:08:09;16.30;66.90
19050;DHT22;9657;45.940;12.840;2023-04-03T08:10:37;16.40;66.80
19050;DHT22;9657;45.940;12.840;2023-04-03T08:13:05;16.40;66.80
19050;DHT22;9657;45.940;12.840;2023-04-03T08:15:33;16.40;66.80
19050;DHT22;9657;45.940;12.840;2023-04-03T08:18:00;16.40;66.70
19050;DHT22;9657;45.940;12.840;2023-04-03T08:20:28;16.40;66.80
19050;DHT22;9657;45.940;12.840;2023-04-03T08:22:55;16.40;66.80
19050;DHT22;9657;45.940;12.840;2023-04-03T08:25:23;16.40;66.60
19050;DHT22;9657;45.940;12.840;2023-04-03T08:27:50;16.40;66.50
19050;DHT22;9657;45.940;12.840;2023-04-03T08:30:17;16.40;66.30
19050;DHT22;9657;45.940;12.840;2023-04-03T08:32:45;16.40;66.10
19050;DHT22;9657;45.940;12.840;2023-04-03T08:35:12;16.40;66.10
19050;DHT22;9657;45.940;12.840;2023-04-03T08:37:39;16.40;66.10
19050;DHT22;9657;45.940;12.840;2023-04-03T08:40:12;16.40;66.10
19050;DHT22;9657;45.940;12.840;2023-04-03T08:42:48;16.40;65.90
19050;DHT22;9657;45.940;12.840;2023-04-03T08:45:20;16.40;65.80
19050;DHT22;9657;45.940;12.840;2023-04-03T08:47:55;16.40;65.60
19050;DHT22;9657;45.940;12.840;2023-04-03T08:50:28;16.40;65.30
19050;DHT22;9657;45.940;12.840;2023-04-03T08:52:58;16.40;65.30
19050;DHT22;9657;45.940;12.840;2023-04-03T08:55:27;16.40;65.00
19050;DHT22;9657;45.940;12.840;2023-04-03T08:58:01;16.40;64.80
19050;DHT22;9657;45.940;12.840;2023-04-03T09:00:32;16.40;64.70
19050;DHT22;9657;45.940;12.840;2023-04-03T09:03:00;16.40;64.60
19050;DHT22;9657;45.940;12.840;2023-04-03T09:05:35;16.40;64.50
19050;DHT22;9657;45.940;12.840;2023-04-03T09:08:12;16.40;64.20
19050;DHT22;9657;45.940;12.840;2023-04-03T09:10:42;16.40;64.10
19050;DHT22;9657;45.940;12.840;2023-04-03T09:13:18;16.40;64.10
19050;DHT22;9657;45.940;12.840;2023-04-03T09:15:48;16.40;64.10
19050;DHT22;9657;45.940;12.840;2023-04-03T09:18:19;16.40;63.80
19050;DHT22;9657;45.940;12.840;2023-04-03T09:20:53;16.40;63.60
19050;DHT22;9657;45.940;12.840;2023-04-03T09:23:26;16.40;63.40
19050;DHT22;9657;45.940;12.840;2023-04-03T09:26:00;16.40;63.30
19050;DHT22;9657;45.940;12.840;2023-04-03T09:28:32;16.40;63.10
19050;DHT22;9657;45.940;12.840;2023-04-03T09:31:00;16.40;62.90
19050;DHT22;9657;45.940;12.840;2023-04-03T09:33:30;16.40;62.80
19050;DHT22;9657;45.940;12.840;2023-04-03T09:35:57;16.40;62.40
19050;DHT22;9657;45.940;12.840;2023-04-03T09:38:24;16.50;62.30
19050;DHT22;9657;45.940;12.840;2023-04-03T09:41:04;16.40;62.20
19050;DHT22;9657;45.940;12.840;2023-04-03T09:43:33;16.50;62.10
19050;DHT22;9657;45.940;12.840;2023-04-03T09:46:24;16.50;62.20
19050;DHT22;9657;45.940;12.840;2023-04-03T09:48:55;16.50;62.10
19050;DHT22;9657;45.940;12.840;2023-04-03T09:51:25;16.50;62.80
19050;DHT22;9657;45.940;12.840;2023-04-03T09:53:54;16.50;61.70
19050;DHT22;9657;45.940;12.840;2023-04-03T09:56:24;16.50;61.70
19050;DHT22;9657;45.940;12.840;2023-04-03T09:59:07;16.50;61.30
19050;DHT22;9657;45.940;12.840;2023-04-03T10:01:37;16.60;61.00
19050;DHT22;9657;45.940;12.840;2023-04-03T10:04:08;16.60;60.30
19050;DHT22;9657;45.940;12.840;2023-04-03T10:06:38;16.60;60.00
19050;DHT22;9657;45.940;12.840;2023-04-03T10:09:17;16.60;60.10
19050;DHT22;9657;45.940;12.840;2023-04-03T10:12:01;16.70;60.00
19050;DHT22;9657;45.940;12.840;2023-04-03T10:14:32;16.70;60.00
19050;DHT22;9657;45.940;12.840;2023-04-03T10:17:13;16.70;59.80
19050;DHT22;9657;45.940;12.840;2023-04-03T10:19:45;16.70;59.30
19050;DHT22;9657;45.940;12.840;2023-04-03T10:22:19;16.80;59.20
19050;DHT22;9657;45.940;12.840;2023-04-03T10:24:55;16.70;58.90
19050;DHT22;9657;45.940;12.840;2023-04-03T10:27:37;16.80;58.80
19050;DHT22;9657;45.940;12.840;2023-04-03T10:30:21;16.80;58.80
19050;DHT22;9657;45.940;12.840;2023-04-03T10:33:00;16.90;58.60
19050;DHT22;9657;45.940;12.840;2023-04-03T10:35:43;16.90;58.80
19050;DHT22;9657;45.940;12.840;2023-04-03T10:38:15;16.80;58.50
19050;DHT22;9657;45.940;12.840;2023-04-03T10:40:52;16.80;58.30
19050;DHT22;9657;45.940;12.840;2023-04-03T10:43:28;16.90;58.20
19050;DHT22;9657;45.940;12.840;2023-04-03T10:46:03;16.90;58.10
19050;DHT22;9657;45.940;12.840;2023-04-03T10:48:49;16.90;58.00
19050;DHT22;9657;45.940;12.840;2023-04-03T10:51:25;16.90;58.20
19050;DHT22;9657;45.940;12.840;2023-04-03T10:53:57;16.90;58.00
19050;DHT22;9657;45.940;12.840;2023-04-03T10:56:32;16.90;57.80
19050;DHT22;9657;45.940;12.840;2023-04-03T10:59:13;16.90;58.10
19050;DHT22;9657;45.940;12.840;2023-04-03T11:01:46;16.90;58.20
19050;DHT22;9657;45.940;12.840;2023-04-03T11:04:15;16.90;58.60
19050;DHT22;9657;45.940;12.840;2023-04-03T11:06:47;16.90;59.60
19050;DHT22;9657;45.940;12.840;2023-04-03T11:09:21;16.90;59.00
19050;DHT22;9657;45.940;12.840;2023-04-03T11:11:53;16.90;59.20
19050;DHT22;9657;45.940;12.840;2023-04-03T11:14:26;16.90;59.30
19050;DHT22;9657;45.940;12.840;2023-04-03T11:17:04;16.90;59.00
19050;DHT22;9657;45.940;12.840;2023-04-03T11:19:36;16.90;59.20
19050;DHT22;9657;45.940;12.840;2023-04-03T11:22:11;16.90;58.70
19050;DHT22;9657;45.940;12.840;2023-04-03T11:24:42;16.90;58.60
19050;DHT22;9657;45.940;12.840;2023-04-03T11:27:15;16.90;58.90
19050;DHT22;9657;45.940;12.840;2023-04-03T11:29:45;16.90;58.80
19050;DHT22;9657;45.940;12.840;2023-04-03T11:32:33;16.80;58.60
19050;DHT22;9657;45.940;12.840;2023-04-03T11:35:05;16.90;58.70
19050;DHT22;9657;45.940;12.840;2023-04-03T11:37:36;16.90;58.70
19050;DHT22;9657;45.940;12.840;2023-04-03T11:40:07;16.80;58.50
19050;DHT22;9657;45.940;12.840;2023-04-03T11:42:38;16.80;58.60
19050;DHT22;9657;45.940;12.840;2023-04-03T11:45:30;16.90;58.60
19050;DHT22;9657;45.940;12.840;2023-04-03T11:48:01;16.90;58.20
19050;DHT22;9657;45.940;12.840;2023-04-03T11:50:45;16.80;57.80
19050;DHT22;9657;45.940;12.840;2023-04-03T11:53:35;16.80;57.70
19050;DHT22;9657;45.940;12.840;2023-04-03T11:59:23;16.80;57.60
19050;DHT22;9657;45.940;12.840;2023-04-03T12:01:51;16.80;57.10
19050;DHT22;9657;45.940;12.840;2023-04-03T12:04:21;16.80;57.00
19050;DHT22;9657;45.940;12.840;2023-04-03T12:07:13;16.80;57.30
19050;DHT22;9657;45.940;12.840;2023-04-03T12:12:56;16.80;57.40
19050;DHT22;9657;45.940;12.840;2023-04-03T12:15:54;16.80;57.50
19050;DHT22;9657;45.940;12.840;2023-04-03T12:18:56;16.80;57.30
19050;DHT22;9657;45.940;12.840;2023-04-03T12:22:06;16.80;57.30
19050;DHT22;9657;45.940;12.840;2023-04-03T12:24:34;16.80;57.20
19050;DHT22;9657;45.940;12.840;2023-04-03T12:27:15;16.80;57.30
19050;DHT22;9657;45.940;12.840;2023-04-03T12:29:49;16.80;57.10
19050;DHT22;9657;45.940;12.840;2023-04-03T12:32:26;16.80;57.20
19050;DHT22;9657;45.940;12.840;2023-04-03T12:35:08;16.80;57.40
19050;DHT22;9657;45.940;12.840;2023-04-03T12:37:50;16.80;57.30
19050;DHT22;9657;45.940;12.840;2023-04-03T12:40:26;16.80;57.20
19050;DHT22;9657;45.940;12.840;2023-04-03T12:43:23;16.80;57.40
19050;DHT22;9657;45.940;12.840;2023-04-03T12:45:59;16.80;57.30
19050;DHT22;9657;45.940;12.840;2023-04-03T12:48:31;16.80;57.50
19050;DHT22;9657;45.940;12.840;2023-04-03T12:51:01;16.80;57.50
19050;DHT22;9657;45.940;12.840;2023-04-03T12:53:33;16.80;57.20
19050;DHT22;9657;45.940;12.840;2023-04-03T12:56:19;16.80;57.40
19050;DHT22;9657;45.940;12.840;2023-04-03T12:58:47;16.80;57.20
19050;DHT22;9657;45.940;12.840;2023-04-03T13:01:16;16.80;57.40
19050;DHT22;9657;45.940;12.840;2023-04-03T13:03:45;16.80;57.50
19050;DHT22;9657;45.940;12.840;2023-04-03T13:06:17;16.80;57.40
19050;DHT22;9657;45.940;12.840;2023-04-03T13:08:51;16.80;57.30
19050;DHT22;9657;45.940;12.840;2023-04-03T13:11:19;16.80;57.30
19050;DHT22;9657;45.940;12.840;2023-04-03T13:13:59;16.80;57.60
19050;DHT22;9657;45.940;12.840;2023-04-03T13:16:26;16.80;57.70
19050;DHT22;9657;45.940;12.840;2023-04-03T13:18:54;16.80;57.80
19050;DHT22;9657;45.940;12.840;2023-04-03T13:21:23;16.80;57.70
19050;DHT22;9657;45.940;12.840;2023-04-03T13:23:54;16.80;58.00
19050;DHT22;9657;45.940;12.840;2023-04-03T13:26:26;16.80;58.00
19050;DHT22;9657;45.940;12.840;2023-04-03T13:28:54;16.80;57.90
19050;DHT22;9657;45.940;12.840;2023-04-03T13:31:26;16.80;57.90
19050;DHT22;9657;45.940;12.840;2023-04-03T13:33:57;16.80;58.00
19050;DHT22;9657;45.940;12.840;2023-04-03T13:36:27;16.80;58.20
19050;DHT22;9657;45.940;12.840;2023-04-03T13:39:02;16.80;58.10
19050;DHT22;9657;45.940;12.840;2023-04-03T13:41:31;16.80;58.20
19050;DHT22;9657;45.940;12.840;2023-04-03T13:44:27;16.80;58.30
19050;DHT22;9657;45.940;12.840;2023-04-03T13:46:56;16.80;58.40
19050;DHT22;9657;45.940;12.840;2023-04-03T13:49:30;16.90;58.70
19050;DHT22;9657;45.940;12.840;2023-04-03T13:51:57;16.90;58.70
19050;DHT22;9657;45.940;12.840;2023-04-03T13:54:30;16.90;58.70
19050;DHT22;9657;45.940;12.840;2023-04-03T13:56:59;16.90;58.70
19050;DHT22;9657;45.940;12.840;2023-04-03T13:59:29;16.90;58.80
19050;DHT22;9657;45.940;12.840;2023-04-03T14:02:13;16.80;58.90
19050;DHT22;9657;45.940;12.840;2023-04-03T14:04:50;16.80;59.00
19050;DHT22;9657;45.940;12.840;2023-04-03T14:07:19;16.90;59.00
19050;DHT22;9657;45.940;12.840;2023-04-03T14:09:48;16.80;59.10
19050;DHT22;9657;45.940;12.840;2023-04-03T14:12:18;16.90;59.00
19050;DHT22;9657;45.940;12.840;2023-04-03T14:14:47;16.90;59.00
19050;DHT22;9657;45.940;12.840;2023-04-03T14:17:16;16.90;58.80
19050;DHT22;9657;45.940;12.840;2023-04-03T14:19:45;16.90;58.70
19050;DHT22;9657;45.940;12.840;2023-04-03T14:22:16;16.90;58.90
19050;DHT22;9657;45.940;12.840;2023-04-03T14:24:44;16.90;58.60
19050;DHT22;9657;45.940;12.840;2023-04-03T14:27:17;16.90;58.30
19050;DHT22;9657;45.940;12.840;2023-04-03T14:29:46;16.90;58.30
19050;DHT22;9657;45.940;12.840;2023-04-03T14:32:14;16.90;58.40
19050;DHT22;9657;45.940;12.840;2023-04-03T14:34:42;16.90;58.40
19050;DHT22;9657;45.940;12.840;2023-04-03T14:37:11;16.90;58.30
19050;DHT22;9657;45.940;12.840;2023-04-03T14:39:38;16.90;58.20
19050;DHT22;9657;45.940;12.840;2023-04-03T14:42:06;16.90;58.20
19050;DHT22;9657;45.940;12.840;2023-04-03T14:44:34;16.90;58.10
19050;DHT22;9657;45.940;12.840;2023-04-03T14:47:01;16.90;57.90
19050;DHT22;9657;45.940;12.840;2023-04-03T14:49:29;16.90;57.80
19050;DHT22;9657;45.940;12.840;2023-04-03T14:51:56;16.90;57.90
19050;DHT22;9657;45.940;12.840;2023-04-03T14:54:24;16.90;57.70
19050;DHT22;9657;45.940;12.840;2023-04-03T14:56:53;16.90;57.90
19050;DHT22;9657;45.940;12.840;2023-04-03T14:59:21;16.90;57.70
19050;DHT22;9657;45.940;12.840;2023-04-03T15:01:50;16.90;57.90
19050;DHT22;9657;45.940;12.840;2023-04-03T15:04:19;16.90;57.40
19050;DHT22;9657;45.940;12.840;2023-04-03T15:06:47;16.90;57.00
19050;DHT22;9657;45.940;12.840;2023-04-03T15:09:21;16.90;57.20
19050;DHT22;9657;45.940;12.840;2023-04-03T15:11:49;16.90;56.50
19050;DHT22;9657;45.940;12.840;2023-04-03T15:14:16;16.90;56.60
19050;DHT22;9657;45.940;12.840;2023-04-03T15:16:44;16.90;56.20
19050;DHT22;9657;45.940;12.840;2023-04-03T15:19:13;16.90;56.00
19050;DHT22;9657;45.940;12.840;2023-04-03T15:21:40;16.90;56.00
19050;DHT22;9657;45.940;12.840;2023-04-03T15:24:08;16.90;55.90
19050;DHT22;9657;45.940;12.840;2023-04-03T15:26:36;16.90;55.80
19050;DHT22;9657;45.940;12.840;2023-04-03T15:29:03;16.90;55.10
19050;DHT22;9657;45.940;12.840;2023-04-03T15:31:30;16.90;54.90
19050;DHT22;9657;45.940;12.840;2023-04-03T15:33:57;16.90;54.70
19050;DHT22;9657;45.940;12.840;2023-04-03T15:36:26;16.90;54.00
19050;DHT22;9657;45.940;12.840;2023-04-03T15:38:53;16.90;53.80
19050;DHT22;9657;45.940;12.840;2023-04-03T15:41:20;16.90;54.00
19050;DHT22;9657;45.940;12.840;2023-04-03T15:43:47;16.90;53.80
19050;DHT22;9657;45.940;12.840;2023-04-03T15:46:14;16.90;53.90
19050;DHT22;9657;45.940;12.840;2023-04-03T15:48:41;16.90;54.20
19050;DHT22;9657;45.940;12.840;2023-04-03T15:51:08;16.90;54.20
19050;DHT22;9657;45.940;12.840;2023-04-03T15:53:36;16.90;54.30
19050;DHT22;9657;45.940;12.840;2023-04-03T15:56:04;16.90;54.60
19050;DHT22;9657;45.940;12.840;2023-04-03T15:58:31;16.90;54.10
19050;DHT22;9657;45.940;12.840;2023-04-03T16:00:58;16.90;54.30
19050;DHT22;9657;45.940;12.840;2023-04-03T16:03:25;16.90;54.30